sensor_id;sensor_type;location;lat;lon;timestamp;P1;durP1;ratioP1;P2;durP2;ratioP2
10059;SDS011;5069;49.306;8.636;2023-08-31T00:02:51;2.27;;;1.80;;
10059;SDS011;5069;49.306;8.636;2023-08-31T00:05:53;2.20;;;2.00;;
10059;SDS011;5069;49.306;8.636;2023-08-31T00:08:54;3.27;;;1.80;;
10059;SDS011;5069;49.306;8.636;2023-08-31T00:11:56;3.47;;;2.13;;
10059;SDS011;5069;49.306;8.636;2023-08-31T00:14:57;7.13;;;2.50;;
10059;SDS011;5069;49.306;8.636;2023-08-31T00:17:59;4.20;;;2.13;;
10059;SDS011;5069;49.306;8.636;2023-08-31T00:21:01;3.10;;;2.00;;
10059;SDS011;5069;49.306;8.636;2023-08-31T00:24:03;3.87;;;2.20;;
10059;SDS011;5069;49.306;8.636;2023-08-31T00:27:04;3.63;;;2.30;;
10059;SDS011;5069;49.306;8.636;2023-08-31T00:30:08;3.33;;;2.20;;
10059;SDS011;5069;49.306;8.636;2023-08-31T00:33:11;3.00;;;2.10;;
10059;SDS011;5069;49.306;8.636;2023-08-31T00:36:14;2.30;;;2.07;;
10059;SDS011;5069;49.306;8.636;2023-08-31T00:39:16;3.27;;;2.10;;
10059;SDS011;5069;49.306;8.636;2023-08-31T00:42:18;2.63;;;2.30;;
10059;SDS011;5069;49.306;8.636;2023-08-31T00:45:21;3.10;;;2.00;;
10059;SDS011;5069;49.306;8.636;2023-08-31T00:48:23;3.27;;;2.00;;
10059;SDS011;5069;49.306;8.636;2023-08-31T00:51:25;2.23;;;1.90;;
10059;SDS011;5069;49.306;8.636;2023-08-31T00:54:27;1.90;;;1.80;;
10059;SDS011;5069;49.306;8.636;2023-08-31T00:57:29;6.93;;;2.23;;
10059;SDS011;5069;49.306;8.636;2023-08-31T01:00:43;2.97;;;1.87;;
10059;SDS011;5069;49.306;8.636;2023-08-31T01:04:03;3.33;;;2.03;;
10059;SDS011;5069;49.306;8.636;2023-08-31T01:07:28;6.73;;;2.43;;
10059;SDS011;5069;49.306;8.636;2023-08-31T01:10:57;2.33;;;2.00;;
10059;SDS011;5069;49.306;8.636;2023-08-31T01:14:08;2.77;;;1.93;;
10059;SDS011;5069;49.306;8.636;2023-08-31T01:17:18;6.00;;;2.20;;
10059;SDS011;5069;49.306;8.636;2023-08-31T01:20:26;2.83;;;1.73;;
10059;SDS011;5069;49.306;8.636;2023-08-31T01:23:46;3.20;;;2.23;;
10059;SDS011;5069;49.306;8.636;2023-08-31T01:26:52;2.37;;;2.10;;
10059;SDS011;5069;49.306;8.636;2023-08-31T01:29:54;2.90;;;1.97;;
10059;SDS011;5069;49.306;8.636;2023-08-31T01:32:57;2.70;;;2.20;;
10059;SDS011;5069;49.306;8.636;2023-08-31T01:36:00;3.00;;;2.33;;
10059;SDS011;5069;49.306;8.636;2023-08-31T01:42:15;6.30;;;2.60;;
10059;SDS011;5069;49.306;8.636;2023-08-31T01:45:22;2.20;;;2.00;;
10059;SDS011;5069;49.306;8.636;2023-08-31T01:48:24;4.80;;;2.17;;
10059;SDS011;5069;49.306;8.636;2023-08-31T01:51:26;2.20;;;2.00;;
10059;SDS011;5069;49.306;8.636;2023-08-31T01:54:28;3.00;;;1.90;;
10059;SDS011;5069;49.306;8.636;2023-08-31T01:57:30;5.60;;;2.00;;
10059;SDS011;5069;49.306;8.636;2023-08-31T02:00:41;4.50;;;1.90;;
10059;SDS011;5069;49.306;8.636;2023-08-31T02:03:43;2.93;;;2.03;;
10059;SDS011;5069;49.306;8.636;2023-08-31T02:06:44;4.27;;;2.43;;
10059;SDS011;5069;49.306;8.636;2023-08-31T02:09:46;4.17;;;2.30;;
10059;SDS011;5069;49.306;8.636;2023-08-31T02:12:47;4.03;;;2.40;;
10059;SDS011;5069;49.306;8.636;2023-08-31T02:15:52;4.30;;;2.20;;
10059;SDS011;5069;49.306;8.636;2023-08-31T02:18:54;4.17;;;2.30;;
10059;SDS011;5069;49.306;8.636;2023-08-31T02:21:56;2.90;;;2.30;;
10059;SDS011;5069;49.306;8.636;2023-08-31T02:24:58;3.30;;;1.90;;
10059;SDS011;5069;49.306;8.636;2023-08-31T02:27:59;3.83;;;1.90;;
10059;SDS011;5069;49.306;8.636;2023-08-31T02:31:02;4.77;;;2.57;;
10059;SDS011;5069;49.306;8.636;2023-08-31T02:34:04;3.30;;;2.33;;
10059;SDS011;5069;49.306;8.636;2023-08-31T02:37:06;2.67;;;2.40;;
10059;SDS011;5069;49.306;8.636;2023-08-31T02:40:07;2.90;;;2.50;;
10059;SDS011;5069;49.306;8.636;2023-08-31T02:43:09;2.57;;;1.93;;
10059;SDS011;5069;49.306;8.636;2023-08-31T02:46:11;3.13;;;2.00;;
10059;SDS011;5069;49.306;8.636;2023-08-31T02:49:14;2.43;;;2.20;;
10059;SDS011;5069;49.306;8.636;2023-08-31T02:52:15;2.30;;;2.10;;
10059;SDS011;5069;49.306;8.636;2023-08-31T02:55:17;3.97;;;2.23;;
10059;SDS011;5069;49.306;8.636;2023-08-31T02:58:18;4.43;;;2.17;;
10059;SDS011;5069;49.306;8.636;2023-08-31T03:01:20;2.73;;;2.20;;
10059;SDS011;5069;49.306;8.636;2023-08-31T03:04:24;3.27;;;1.77;;
10059;SDS011;5069;49.306;8.636;2023-08-31T03:07:25;2.97;;;2.00;;
10059;SDS011;5069;49.306;8.636;2023-08-31T03:10:27;3.87;;;2.30;;
10059;SDS011;5069;49.306;8.636;2023-08-31T03:13:28;6.23;;;2.07;;
10059;SDS011;5069;49.306;8.636;2023-08-31T03:16:30;3.77;;;2.20;;
10059;SDS011;5069;49.306;8.636;2023-08-31T03:19:31;3.37;;;2.10;;
10059;SDS011;5069;49.306;8.636;2023-08-31T03:22:33;5.17;;;2.27;;
10059;SDS011;5069;49.306;8.636;2023-08-31T03:25:34;3.23;;;2.10;;
10059;SDS011;5069;49.306;8.636;2023-08-31T03:28:36;3.53;;;2.13;;
10059;SDS011;5069;49.306;8.636;2023-08-31T03:31:41;3.30;;;2.20;;
10059;SDS011;5069;49.306;8.636;2023-08-31T03:34:43;2.70;;;2.07;;
10059;SDS011;5069;49.306;8.636;2023-08-31T03:37:47;4.03;;;2.27;;
10059;SDS011;5069;49.306;8.636;2023-08-31T03:40:53;2.70;;;2.10;;
10059;SDS011;5069;49.306;8.636;2023-08-31T03:43:56;4.63;;;2.30;;
10059;SDS011;5069;49.306;8.636;2023-08-31T03:46:57;3.87;;;2.30;;
10059;SDS011;5069;49.306;8.636;2023-08-31T03:49:59;7.40;;;2.60;;
10059;SDS011;5069;49.306;8.636;2023-08-31T03:53:00;2.97;;;2.20;;
10059;SDS011;5069;49.306;8.636;2023-08-31T03:56:04;3.47;;;2.30;;
10059;SDS011;5069;49.306;8.636;2023-08-31T03:59:06;3.53;;;2.00;;
10059;SDS011;5069;49.306;8.636;2023-08-31T04:02:08;2.63;;;2.17;;
10059;SDS011;5069;49.306;8.636;2023-08-31T04:05:09;3.87;;;2.20;;
10059;SDS011;5069;49.306;8.636;2023-08-31T04:08:12;3.03;;;2.30;;
10059;SDS011;5069;49.306;8.636;2023-08-31T04:11:13;4.10;;;2.60;;
10059;SDS011;5069;49.306;8.636;2023-08-31T04:14:15;3.87;;;2.57;;
10059;SDS011;5069;49.306;8.636;2023-08-31T04:17:19;5.90;;;2.80;;
10059;SDS011;5069;49.306;8.636;2023-08-31T04:20:20;2.73;;;2.30;;
10059;SDS011;5069;49.306;8.636;2023-08-31T04:23:22;4.23;;;2.57;;
10059;SDS011;5069;49.306;8.636;2023-08-31T04:26:23;4.90;;;2.50;;
10059;SDS011;5069;49.306;8.636;2023-08-31T04:29:25;4.17;;;2.50;;
10059;SDS011;5069;49.306;8.636;2023-08-31T04:32:27;3.67;;;2.70;;
10059;SDS011;5069;49.306;8.636;2023-08-31T04:35:28;3.87;;;2.50;;
10059;SDS011;5069;49.306;8.636;2023-08-31T04:38:30;5.73;;;2.40;;
10059;SDS011;5069;49.306;8.636;2023-08-31T04:41:32;3.63;;;2.17;;
10059;SDS011;5069;49.306;8.636;2023-08-31T04:44:34;3.07;;;2.47;;
10059;SDS011;5069;49.306;8.636;2023-08-31T04:47:36;4.73;;;2.70;;
10059;SDS011;5069;49.306;8.636;2023-08-31T04:50:38;5.23;;;2.90;;
10059;SDS011;5069;49.306;8.636;2023-08-31T04:53:39;3.60;;;2.60;;
10059;SDS011;5069;49.306;8.636;2023-08-31T04:56:41;3.07;;;2.70;;
10059;SDS011;5069;49.306;8.636;2023-08-31T04:59:42;3.50;;;2.60;;
10059;SDS011;5069;49.306;8.636;2023-08-31T05:02:44;4.23;;;2.97;;
10059;SDS011;5069;49.306;8.636;2023-08-31T05:05:45;3.93;;;2.77;;
10059;SDS011;5069;49.306;8.636;2023-08-31T05:08:47;5.10;;;3.03;;
10059;SDS011;5069;49.306;8.636;2023-08-31T05:11:49;4.90;;;3.10;;
10059;SDS011;5069;49.306;8.636;2023-08-31T05:14:51;3.43;;;3.13;;
10059;SDS011;5069;49.306;8.636;2023-08-31T05:17:53;3.40;;;3.10;;
10059;SDS011;5069;49.306;8.636;2023-08-31T05:20:55;3.90;;;3.20;;
10059;SDS011;5069;49.306;8.636;2023-08-31T05:23:57;5.10;;;3.10;;
10059;SDS011;5069;49.306;8.636;2023-08-31T05:26:58;6.27;;;3.00;;
10059;SDS011;5069;49.306;8.636;2023-08-31T05:30:00;5.47;;;2.90;;
10059;SDS011;5069;49.306;8.636;2023-08-31T05:33:02;3.30;;;3.00;;
10059;SDS011;5069;49.306;8.636;2023-08-31T05:36:04;6.63;;;3.43;;
10059;SDS011;5069;49.306;8.636;2023-08-31T05:39:06;5.53;;;3.40;;
10059;SDS011;5069;49.306;8.636;2023-08-31T05:42:09;4.50;;;3.10;;
10059;SDS011;5069;49.306;8.636;2023-08-31T05:45:10;5.97;;;3.47;;
10059;SDS011;5069;49.306;8.636;2023-08-31T05:48:12;7.47;;;3.13;;
10059;SDS011;5069;49.306;8.636;2023-08-31T05:51:14;5.10;;;3.20;;
10059;SDS011;5069;49.306;8.636;2023-08-31T05:54:15;4.23;;;3.27;;
10059;SDS011;5069;49.306;8.636;2023-08-31T05:57:20;4.13;;;3.30;;
10059;SDS011;5069;49.306;8.636;2023-08-31T06:00:23;5.27;;;3.00;;
10059;SDS011;5069;49.306;8.636;2023-08-31T06:03:25;4.93;;;3.13;;
10059;SDS011;5069;49.306;8.636;2023-08-31T06:06:26;4.97;;;3.10;;
10059;SDS011;5069;49.306;8.636;2023-08-31T06:09:28;3.27;;;2.90;;
10059;SDS011;5069;49.306;8.636;2023-08-31T06:12:29;4.47;;;3.07;;
10059;SDS011;5069;49.306;8.636;2023-08-31T06:15:31;3.87;;;2.97;;
10059;SDS011;5069;49.306;8.636;2023-08-31T06:18:32;6.30;;;2.73;;
10059;SDS011;5069;49.306;8.636;2023-08-31T06:21:34;4.77;;;3.20;;
10059;SDS011;5069;49.306;8.636;2023-08-31T06:24:35;4.00;;;3.00;;
10059;SDS011;5069;49.306;8.636;2023-08-31T06:27:39;3.57;;;2.90;;
10059;SDS011;5069;49.306;8.636;2023-08-31T06:30:41;4.63;;;2.70;;
10059;SDS011;5069;49.306;8.636;2023-08-31T06:33:48;4.20;;;2.90;;
10059;SDS011;5069;49.306;8.636;2023-08-31T06:36:49;3.90;;;2.50;;
10059;SDS011;5069;49.306;8.636;2023-08-31T06:39:51;5.00;;;2.80;;
10059;SDS011;5069;49.306;8.636;2023-08-31T06:42:52;5.10;;;2.90;;
10059;SDS011;5069;49.306;8.636;2023-08-31T06:45:54;5.37;;;2.77;;
10059;SDS011;5069;49.306;8.636;2023-08-31T06:48:58;4.50;;;2.80;;
10059;SDS011;5069;49.306;8.636;2023-08-31T06:52:00;7.67;;;2.70;;
10059;SDS011;5069;49.306;8.636;2023-08-31T06:55:05;6.10;;;2.90;;
10059;SDS011;5069;49.306;8.636;2023-08-31T06:58:07;11.03;;;3.13;;
10059;SDS011;5069;49.306;8.636;2023-08-31T07:01:08;5.03;;;2.73;;
10059;SDS011;5069;49.306;8.636;2023-08-31T07:04:10;9.53;;;3.33;;
10059;SDS011;5069;49.306;8.636;2023-08-31T07:07:12;5.67;;;3.63;;
10059;SDS011;5069;49.306;8.636;2023-08-31T07:10:16;5.30;;;2.90;;
10059;SDS011;5069;49.306;8.636;2023-08-31T07:13:18;8.17;;;2.90;;
10059;SDS011;5069;49.306;8.636;2023-08-31T07:16:19;9.67;;;2.90;;
10059;SDS011;5069;49.306;8.636;2023-08-31T07:19:21;6.50;;;2.87;;
10059;SDS011;5069;49.306;8.636;2023-08-31T07:22:22;5.37;;;2.90;;
10059;SDS011;5069;49.306;8.636;2023-08-31T07:25:24;5.77;;;2.43;;
10059;SDS011;5069;49.306;8.636;2023-08-31T07:28:26;4.40;;;2.40;;
10059;SDS011;5069;49.306;8.636;2023-08-31T07:31:28;6.27;;;2.60;;
10059;SDS011;5069;49.306;8.636;2023-08-31T07:34:29;3.80;;;2.33;;
10059;SDS011;5069;49.306;8.636;2023-08-31T07:37:32;8.03;;;2.83;;
10059;SDS011;5069;49.306;8.636;2023-08-31T07:40:33;7.97;;;3.40;;
10059;SDS011;5069;49.306;8.636;2023-08-31T07:43:35;4.70;;;2.40;;
10059;SDS011;5069;49.306;8.636;2023-08-31T07:46:38;4.23;;;2.47;;
10059;SDS011;5069;49.306;8.636;2023-08-31T07:49:40;4.27;;;2.30;;
10059;SDS011;5069;49.306;8.636;2023-08-31T07:52:42;4.70;;;2.27;;
10059;SDS011;5069;49.306;8.636;2023-08-31T07:55:50;5.50;;;2.13;;
10059;SDS011;5069;49.306;8.636;2023-08-31T07:58:55;6.80;;;2.70;;
10059;SDS011;5069;49.306;8.636;2023-08-31T08:01:57;5.67;;;2.00;;
10059;SDS011;5069;49.306;8.636;2023-08-31T08:04:59;4.37;;;1.90;;
10059;SDS011;5069;49.306;8.636;2023-08-31T08:08:00;2.23;;;1.70;;
10059;SDS011;5069;49.306;8.636;2023-08-31T08:11:03;4.13;;;2.10;;
10059;SDS011;5069;49.306;8.636;2023-08-31T08:14:05;3.20;;;1.70;;
10059;SDS011;5069;49.306;8.636;2023-08-31T08:17:07;3.17;;;1.93;;
10059;SDS011;5069;49.306;8.636;2023-08-31T08:20:08;4.17;;;1.73;;
10059;SDS011;5069;49.306;8.636;2023-08-31T08:23:10;4.60;;;1.73;;
10059;SDS011;5069;49.306;8.636;2023-08-31T08:26:12;5.13;;;2.00;;
10059;SDS011;5069;49.306;8.636;2023-08-31T08:29:14;5.87;;;2.00;;
10059;SDS011;5069;49.306;8.636;2023-08-31T08:32:15;3.80;;;1.87;;
10059;SDS011;5069;49.306;8.636;2023-08-31T08:35:17;5.20;;;2.10;;
10059;SDS011;5069;49.306;8.636;2023-08-31T08:38:18;5.00;;;2.10;;
10059;SDS011;5069;49.306;8.636;2023-08-31T08:41:22;3.30;;;2.07;;
10059;SDS011;5069;49.306;8.636;2023-08-31T08:44:25;4.57;;;2.00;;
10059;SDS011;5069;49.306;8.636;2023-08-31T08:47:29;6.57;;;2.47;;
10059;SDS011;5069;49.306;8.636;2023-08-31T08:50:32;4.73;;;1.90;;
10059;SDS011;5069;49.306;8.636;2023-08-31T08:53:35;5.20;;;2.10;;
10059;SDS011;5069;49.306;8.636;2023-08-31T08:56:39;5.97;;;2.10;;
10059;SDS011;5069;49.306;8.636;2023-08-31T08:59:40;4.50;;;2.30;;
10059;SDS011;5069;49.306;8.636;2023-08-31T09:02:42;4.33;;;2.10;;
10059;SDS011;5069;49.306;8.636;2023-08-31T09:05:43;5.30;;;2.10;;
10059;SDS011;5069;49.306;8.636;2023-08-31T09:08:45;4.87;;;2.40;;
10059;SDS011;5069;49.306;8.636;2023-08-31T09:11:54;4.63;;;1.90;;
10059;SDS011;5069;49.306;8.636;2023-08-31T09:15:00;3.73;;;2.20;;
10059;SDS011;5069;49.306;8.636;2023-08-31T09:18:02;5.73;;;2.30;;
10059;SDS011;5069;49.306;8.636;2023-08-31T09:21:04;7.23;;;2.10;;
10059;SDS011;5069;49.306;8.636;2023-08-31T09:24:06;5.03;;;2.17;;
10059;SDS011;5069;49.306;8.636;2023-08-31T09:27:14;4.27;;;2.00;;
10059;SDS011;5069;49.306;8.636;2023-08-31T09:30:15;2.77;;;2.00;;
10059;SDS011;5069;49.306;8.636;2023-08-31T09:33:17;5.60;;;2.20;;
10059;SDS011;5069;49.306;8.636;2023-08-31T09:36:21;3.87;;;2.00;;
10059;SDS011;5069;49.306;8.636;2023-08-31T09:39:24;5.20;;;2.10;;
10059;SDS011;5069;49.306;8.636;2023-08-31T09:42:37;4.77;;;2.00;;
10059;SDS011;5069;49.306;8.636;2023-08-31T09:45:39;5.93;;;2.23;;
10059;SDS011;5069;49.306;8.636;2023-08-31T09:48:46;5.60;;;1.97;;
10059;SDS011;5069;49.306;8.636;2023-08-31T09:51:49;3.33;;;1.80;;
10059;SDS011;5069;49.306;8.636;2023-08-31T09:54:51;4.13;;;2.40;;
10059;SDS011;5069;49.306;8.636;2023-08-31T09:57:54;4.33;;;2.20;;
10059;SDS011;5069;49.306;8.636;2023-08-31T10:01:15;4.13;;;2.00;;
10059;SDS011;5069;49.306;8.636;2023-08-31T10:04:29;5.83;;;2.20;;
10059;SDS011;5069;49.306;8.636;2023-08-31T10:07:34;3.43;;;1.87;;
10059;SDS011;5069;49.306;8.636;2023-08-31T10:10:35;4.17;;;2.10;;
10059;SDS011;5069;49.306;8.636;2023-08-31T10:13:38;3.80;;;1.73;;
10059;SDS011;5069;49.306;8.636;2023-08-31T10:16:45;4.43;;;1.93;;
10059;SDS011;5069;49.306;8.636;2023-08-31T10:19:47;4.23;;;1.90;;
10059;SDS011;5069;49.306;8.636;2023-08-31T10:22:49;3.67;;;1.70;;
10059;SDS011;5069;49.306;8.636;2023-08-31T10:28:55;4.13;;;1.83;;
10059;SDS011;5069;49.306;8.636;2023-08-31T10:32:00;4.20;;;1.73;;
10059;SDS011;5069;49.306;8.636;2023-08-31T10:35:05;4.37;;;1.73;;
10059;SDS011;5069;49.306;8.636;2023-08-31T10:38:25;4.23;;;2.00;;
10059;SDS011;5069;49.306;8.636;2023-08-31T10:41:34;3.07;;;1.80;;
10059;SDS011;5069;49.306;8.636;2023-08-31T10:44:41;3.63;;;1.90;;
10059;SDS011;5069;49.306;8.636;2023-08-31T10:47:44;4.67;;;1.80;;
10059;SDS011;5069;49.306;8.636;2023-08-31T10:50:48;3.90;;;2.00;;
10059;SDS011;5069;49.306;8.636;2023-08-31T10:53:49;4.27;;;1.67;;
10059;SDS011;5069;49.306;8.636;2023-08-31T10:56:52;5.33;;;1.90;;
10059;SDS011;5069;49.306;8.636;2023-08-31T10:59:56;3.00;;;1.70;;
10059;SDS011;5069;49.306;8.636;2023-08-31T11:02:57;6.07;;;2.07;;
10059;SDS011;5069;49.306;8.636;2023-08-31T11:05:59;4.47;;;1.70;;
10059;SDS011;5069;49.306;8.636;2023-08-31T11:09:00;5.13;;;2.10;;
10059;SDS011;5069;49.306;8.636;2023-08-31T11:12:03;6.17;;;1.60;;
10059;SDS011;5069;49.306;8.636;2023-08-31T11:15:05;4.40;;;1.93;;
10059;SDS011;5069;49.306;8.636;2023-08-31T11:18:07;3.73;;;2.00;;
10059;SDS011;5069;49.306;8.636;2023-08-31T11:21:09;5.20;;;2.30;;
10059;SDS011;5069;49.306;8.636;2023-08-31T11:24:11;3.83;;;1.90;;
10059;SDS011;5069;49.306;8.636;2023-08-31T11:27:12;4.07;;;2.00;;
10059;SDS011;5069;49.306;8.636;2023-08-31T11:30:14;4.63;;;1.73;;
10059;SDS011;5069;49.306;8.636;2023-08-31T11:33:16;4.90;;;2.00;;
10059;SDS011;5069;49.306;8.636;2023-08-31T11:36:18;5.57;;;2.00;;
10059;SDS011;5069;49.306;8.636;2023-08-31T11:39:20;6.53;;;2.20;;
10059;SDS011;5069;49.306;8.636;2023-08-31T11:42:21;6.20;;;1.87;;
10059;SDS011;5069;49.306;8.636;2023-08-31T11:45:23;5.70;;;2.10;;
10059;SDS011;5069;49.306;8.636;2023-08-31T11:48:25;7.37;;;2.27;;
10059;SDS011;5069;49.306;8.636;2023-08-31T11:51:27;5.47;;;2.40;;
10059;SDS011;5069;49.306;8.636;2023-08-31T11:54:32;4.90;;;1.97;;
10059;SDS011;5069;49.306;8.636;2023-08-31T11:57:33;5.77;;;2.20;;
10059;SDS011;5069;49.306;8.636;2023-08-31T12:00:35;6.70;;;2.07;;
10059;SDS011;5069;49.306;8.636;2023-08-31T12:03:43;6.43;;;2.10;;
10059;SDS011;5069;49.306;8.636;2023-08-31T12:06:51;4.40;;;1.87;;
10059;SDS011;5069;49.306;8.636;2023-08-31T12:09:55;5.83;;;2.10;;
10059;SDS011;5069;49.306;8.636;2023-08-31T12:13:13;5.40;;;2.10;;
10059;SDS011;5069;49.306;8.636;2023-08-31T12:16:15;5.60;;;2.20;;
10059;SDS011;5069;49.306;8.636;2023-08-31T12:19:18;3.70;;;1.97;;
10059;SDS011;5069;49.306;8.636;2023-08-31T12:22:20;5.50;;;2.17;;
10059;SDS011;5069;49.306;8.636;2023-08-31T12:25:22;7.23;;;2.33;;
10059;SDS011;5069;49.306;8.636;2023-08-31T12:28:24;5.83;;;2.23;;
10059;SDS011;5069;49.306;8.636;2023-08-31T12:31:27;6.17;;;2.43;;
10059;SDS011;5069;49.306;8.636;2023-08-31T12:34:29;6.03;;;2.30;;
10059;SDS011;5069;49.306;8.636;2023-08-31T12:37:32;4.33;;;2.07;;
10059;SDS011;5069;49.306;8.636;2023-08-31T12:40:33;5.00;;;2.10;;
10059;SDS011;5069;49.306;8.636;2023-08-31T12:43:35;6.87;;;2.00;;
10059;SDS011;5069;49.306;8.636;2023-08-31T12:46:36;3.80;;;1.93;;
10059;SDS011;5069;49.306;8.636;2023-08-31T12:49:38;6.10;;;2.50;;
10059;SDS011;5069;49.306;8.636;2023-08-31T12:52:40;6.13;;;2.20;;
10059;SDS011;5069;49.306;8.636;2023-08-31T12:55:45;6.07;;;2.27;;
10059;SDS011;5069;49.306;8.636;2023-08-31T12:58:48;5.47;;;2.27;;
10059;SDS011;5069;49.306;8.636;2023-08-31T13:01:52;6.53;;;2.37;;
10059;SDS011;5069;49.306;8.636;2023-08-31T13:04:54;7.20;;;2.20;;
10059;SDS011;5069;49.306;8.636;2023-08-31T13:07:56;5.87;;;2.20;;
10059;SDS011;5069;49.306;8.636;2023-08-31T13:10:57;6.57;;;2.27;;
10059;SDS011;5069;49.306;8.636;2023-08-31T13:13:59;5.37;;;2.50;;
10059;SDS011;5069;49.306;8.636;2023-08-31T13:17:00;3.63;;;2.10;;
10059;SDS011;5069;49.306;8.636;2023-08-31T13:20:02;8.80;;;2.40;;
10059;SDS011;5069;49.306;8.636;2023-08-31T13:23:04;3.70;;;1.73;;
10059;SDS011;5069;49.306;8.636;2023-08-31T13:26:06;5.93;;;2.23;;
10059;SDS011;5069;49.306;8.636;2023-08-31T13:29:08;3.40;;;1.80;;
10059;SDS011;5069;49.306;8.636;2023-08-31T13:32:09;6.17;;;2.33;;
10059;SDS011;5069;49.306;8.636;2023-08-31T13:35:11;4.50;;;2.40;;
10059;SDS011;5069;49.306;8.636;2023-08-31T13:38:13;6.60;;;2.37;;
10059;SDS011;5069;49.306;8.636;2023-08-31T13:41:15;5.13;;;2.80;;
10059;SDS011;5069;49.306;8.636;2023-08-31T13:44:16;5.33;;;2.10;;
10059;SDS011;5069;49.306;8.636;2023-08-31T13:47:18;6.43;;;2.27;;
10059;SDS011;5069;49.306;8.636;2023-08-31T13:50:21;4.17;;;2.30;;
10059;SDS011;5069;49.306;8.636;2023-08-31T13:53:22;4.20;;;2.03;;
10059;SDS011;5069;49.306;8.636;2023-08-31T13:56:24;4.67;;;2.17;;
10059;SDS011;5069;49.306;8.636;2023-08-31T13:59:26;4.03;;;2.20;;
10059;SDS011;5069;49.306;8.636;2023-08-31T14:02:30;5.53;;;2.10;;
10059;SDS011;5069;49.306;8.636;2023-08-31T14:05:32;5.47;;;2.10;;
10059;SDS011;5069;49.306;8.636;2023-08-31T14:08:34;5.13;;;2.23;;
10059;SDS011;5069;49.306;8.636;2023-08-31T14:11:35;4.20;;;2.17;;
10059;SDS011;5069;49.306;8.636;2023-08-31T14:14:37;3.63;;;2.23;;
10059;SDS011;5069;49.306;8.636;2023-08-31T14:17:40;3.43;;;1.90;;
10059;SDS011;5069;49.306;8.636;2023-08-31T14:20:42;5.23;;;2.03;;
10059;SDS011;5069;49.306;8.636;2023-08-31T14:23:44;4.40;;;2.20;;
10059;SDS011;5069;49.306;8.636;2023-08-31T14:26:46;8.50;;;2.40;;
10059;SDS011;5069;49.306;8.636;2023-08-31T14:29:48;4.60;;;2.10;;
10059;SDS011;5069;49.306;8.636;2023-08-31T14:32:50;4.87;;;2.13;;
10059;SDS011;5069;49.306;8.636;2023-08-31T14:35:51;6.23;;;2.37;;
10059;SDS011;5069;49.306;8.636;2023-08-31T14:38:56;5.00;;;2.20;;
10059;SDS011;5069;49.306;8.636;2023-08-31T14:41:58;7.30;;;2.60;;
10059;SDS011;5069;49.306;8.636;2023-08-31T14:45:00;10.83;;;3.13;;
10059;SDS011;5069;49.306;8.636;2023-08-31T14:48:01;5.60;;;2.27;;
10059;SDS011;5069;49.306;8.636;2023-08-31T14:51:03;4.43;;;2.00;;
10059;SDS011;5069;49.306;8.636;2023-08-31T14:54:04;10.23;;;2.40;;
10059;SDS011;5069;49.306;8.636;2023-08-31T14:57:06;4.87;;;2.30;;
10059;SDS011;5069;49.306;8.636;2023-08-31T15:00:08;6.27;;;2.13;;
10059;SDS011;5069;49.306;8.636;2023-08-31T15:03:10;6.43;;;2.50;;
10059;SDS011;5069;49.306;8.636;2023-08-31T15:06:12;7.30;;;2.23;;
10059;SDS011;5069;49.306;8.636;2023-08-31T15:09:14;8.20;;;2.50;;
10059;SDS011;5069;49.306;8.636;2023-08-31T15:12:16;5.00;;;2.30;;
10059;SDS011;5069;49.306;8.636;2023-08-31T15:15:17;6.03;;;2.43;;
10059;SDS011;5069;49.306;8.636;2023-08-31T15:18:19;5.20;;;2.33;;
10059;SDS011;5069;49.306;8.636;2023-08-31T15:21:20;5.63;;;2.00;;
10059;SDS011;5069;49.306;8.636;2023-08-31T15:24:22;5.30;;;2.13;;
10059;SDS011;5069;49.306;8.636;2023-08-31T15:27:23;4.13;;;1.90;;
10059;SDS011;5069;49.306;8.636;2023-08-31T15:30:25;4.53;;;2.03;;
10059;SDS011;5069;49.306;8.636;2023-08-31T15:33:27;9.17;;;2.23;;
10059;SDS011;5069;49.306;8.636;2023-08-31T15:36:28;5.47;;;2.17;;
10059;SDS011;5069;49.306;8.636;2023-08-31T15:39:30;4.77;;;2.10;;
10059;SDS011;5069;49.306;8.636;2023-08-31T15:42:31;3.40;;;2.07;;
10059;SDS011;5069;49.306;8.636;2023-08-31T15:45:33;4.93;;;2.07;;
10059;SDS011;5069;49.306;8.636;2023-08-31T15:48:34;8.03;;;2.20;;
10059;SDS011;5069;49.306;8.636;2023-08-31T15:51:36;6.97;;;2.50;;
10059;SDS011;5069;49.306;8.636;2023-08-31T15:54:37;5.80;;;2.40;;
10059;SDS011;5069;49.306;8.636;2023-08-31T15:57:40;8.23;;;2.37;;
10059;SDS011;5069;49.306;8.636;2023-08-31T16:00:42;6.03;;;2.17;;
10059;SDS011;5069;49.306;8.636;2023-08-31T16:03:44;6.13;;;2.50;;
10059;SDS011;5069;49.306;8.636;2023-08-31T16:06:45;5.77;;;2.63;;
10059;SDS011;5069;49.306;8.636;2023-08-31T16:09:50;4.43;;;2.00;;
10059;SDS011;5069;49.306;8.636;2023-08-31T16:12:53;8.47;;;2.10;;
10059;SDS011;5069;49.306;8.636;2023-08-31T16:15:55;6.83;;;2.63;;
10059;SDS011;5069;49.306;8.636;2023-08-31T16:18:57;5.80;;;2.57;;
10059;SDS011;5069;49.306;8.636;2023-08-31T16:21:58;5.50;;;2.60;;
10059;SDS011;5069;49.306;8.636;2023-08-31T16:25:00;6.10;;;2.67;;
10059;SDS011;5069;49.306;8.636;2023-08-31T16:28:02;7.20;;;2.60;;
10059;SDS011;5069;49.306;8.636;2023-08-31T16:31:04;5.13;;;2.17;;
10059;SDS011;5069;49.306;8.636;2023-08-31T16:34:06;7.20;;;2.77;;
10059;SDS011;5069;49.306;8.636;2023-08-31T16:37:08;5.30;;;2.40;;
10059;SDS011;5069;49.306;8.636;2023-08-31T16:40:12;5.37;;;2.40;;
10059;SDS011;5069;49.306;8.636;2023-08-31T16:43:14;5.67;;;2.40;;
10059;SDS011;5069;49.306;8.636;2023-08-31T16:46:16;6.20;;;2.60;;
10059;SDS011;5069;49.306;8.636;2023-08-31T16:49:18;4.07;;;1.97;;
10059;SDS011;5069;49.306;8.636;2023-08-31T16:52:20;5.60;;;2.17;;
10059;SDS011;5069;49.306;8.636;2023-08-31T16:55:21;4.77;;;2.07;;
10059;SDS011;5069;49.306;8.636;2023-08-31T16:58:23;5.43;;;2.10;;
10059;SDS011;5069;49.306;8.636;2023-08-31T17:01:25;7.00;;;2.40;;
10059;SDS011;5069;49.306;8.636;2023-08-31T17:04:26;7.47;;;2.43;;
10059;SDS011;5069;49.306;8.636;2023-08-31T17:07:28;7.00;;;2.50;;
10059;SDS011;5069;49.306;8.636;2023-08-31T17:10:31;6.50;;;2.47;;
10059;SDS011;5069;49.306;8.636;2023-08-31T17:13:32;9.20;;;2.63;;
10059;SDS011;5069;49.306;8.636;2023-08-31T17:16:37;6.03;;;2.80;;
10059;SDS011;5069;49.306;8.636;2023-08-31T17:19:38;5.90;;;2.87;;
10059;SDS011;5069;49.306;8.636;2023-08-31T17:22:40;5.33;;;2.40;;
10059;SDS011;5069;49.306;8.636;2023-08-31T17:25:42;8.00;;;2.70;;
10059;SDS011;5069;49.306;8.636;2023-08-31T17:28:44;6.20;;;2.57;;
10059;SDS011;5069;49.306;8.636;2023-08-31T17:31:45;6.30;;;2.80;;
10059;SDS011;5069;49.306;8.636;2023-08-31T17:34:47;5.50;;;2.60;;
10059;SDS011;5069;49.306;8.636;2023-08-31T17:37:48;7.53;;;3.00;;
10059;SDS011;5069;49.306;8.636;2023-08-31T17:40:50;5.97;;;2.90;;
10059;SDS011;5069;49.306;8.636;2023-08-31T17:43:51;9.30;;;3.00;;
10059;SDS011;5069;49.306;8.636;2023-08-31T17:46:54;6.67;;;3.10;;
10059;SDS011;5069;49.306;8.636;2023-08-31T17:49:56;5.13;;;2.57;;
10059;SDS011;5069;49.306;8.636;2023-08-31T17:52:58;7.17;;;2.63;;
10059;SDS011;5069;49.306;8.636;2023-08-31T17:55:59;6.27;;;3.00;;
10059;SDS011;5069;49.306;8.636;2023-08-31T17:59:01;5.90;;;2.73;;
10059;SDS011;5069;49.306;8.636;2023-08-31T18:02:05;8.03;;;3.00;;
10059;SDS011;5069;49.306;8.636;2023-08-31T18:05:06;8.50;;;3.10;;
10059;SDS011;5069;49.306;8.636;2023-08-31T18:08:08;5.70;;;2.87;;
10059;SDS011;5069;49.306;8.636;2023-08-31T18:11:10;7.63;;;2.73;;
10059;SDS011;5069;49.306;8.636;2023-08-31T18:14:11;6.63;;;2.80;;
10059;SDS011;5069;49.306;8.636;2023-08-31T18:17:13;7.97;;;2.77;;
10059;SDS011;5069;49.306;8.636;2023-08-31T18:20:14;9.53;;;3.10;;
10059;SDS011;5069;49.306;8.636;2023-08-31T18:23:16;6.40;;;3.17;;
10059;SDS011;5069;49.306;8.636;2023-08-31T18:26:17;9.47;;;3.00;;
10059;SDS011;5069;49.306;8.636;2023-08-31T18:29:19;7.50;;;3.27;;
10059;SDS011;5069;49.306;8.636;2023-08-31T18:32:21;6.13;;;3.07;;
10059;SDS011;5069;49.306;8.636;2023-08-31T18:35:22;5.73;;;3.20;;
10059;SDS011;5069;49.306;8.636;2023-08-31T18:38:24;7.13;;;3.23;;
10059;SDS011;5069;49.306;8.636;2023-08-31T18:41:27;8.67;;;3.27;;
10059;SDS011;5069;49.306;8.636;2023-08-31T18:44:28;7.30;;;2.80;;